createdAt,value
2023-03-13T00:00:28.034Z,11.80
2023-03-13T00:03:02.931Z,11.80
2023-03-13T00:05:34.302Z,11.80
2023-03-13T00:08:05.142Z,11.80
2023-03-13T00:10:40.534Z,11.80
2023-03-13T00:13:11.887Z,11.80
2023-03-13T00:15:42.112Z,11.80
2023-03-13T00:18:15.811Z,11.80
2023-03-13T00:20:49.122Z,11.80
2023-03-13T00:23:19.948Z,11.80
2023-03-13T00:25:50.834Z,11.80
2023-03-13T00:28:21.234Z,11.80
2023-03-13T00:30:52.235Z,11.80
2023-03-13T00:33:25.830Z,11.80
2023-03-13T00:36:00.766Z,11.80
2023-03-13T00:38:35.770Z,11.80
2023-03-13T00:41:08.566Z,11.90
2023-03-13T00:43:39.878Z,11.80
2023-03-13T00:46:11.319Z,11.80
2023-03-13T00:48:44.819Z,11.80
2023-03-13T00:51:17.697Z,11.80
2023-03-13T00:53:50.231Z,11.80
2023-03-13T00:56:22.784Z,11.80
2023-03-13T00:58:53.806Z,11.80
2023-03-13T01:01:26.990Z,11.80
2023-03-13T01:04:02.816Z,11.80
2023-03-13T01:06:37.122Z,11.80
2023-03-13T01:09:09.878Z,11.90
2023-03-13T01:11:42.750Z,11.70
2023-03-13T01:14:16.283Z,11.80
2023-03-13T01:16:47.284Z,11.70
2023-03-13T01:19:20.789Z,11.80
2023-03-13T01:21:51.574Z,11.80
2023-03-13T01:24:23.019Z,11.90
2023-03-13T01:26:54.086Z,11.90
2023-03-13T01:29:24.910Z,11.90
2023-03-13T01:31:55.858Z,11.90
2023-03-13T01:34:29.206Z,11.90
2023-03-13T01:37:01.614Z,11.90
2023-03-13T01:39:32.284Z,11.90
2023-03-13T01:42:03.838Z,12.00
2023-03-13T01:44:54.106Z,12.00
2023-03-13T01:47:25.683Z,12.00
2023-03-13T01:50:20.128Z,12.00
2023-03-13T01:52:59.780Z,12.00
2023-03-13T01:55:33.924Z,12.00
2023-03-13T01:58:05.053Z,12.00
2023-03-13T02:00:39.983Z,12.00
2023-03-13T02:03:16.982Z,12.00
2023-03-13T02:05:53.426Z,12.10
2023-03-13T02:08:27.734Z,12.00
2023-03-13T02:11:08.821Z,12.00
2023-03-13T02:13:39.991Z,12.10
2023-03-13T02:16:11.912Z,12.10
2023-03-13T02:18:42.938Z,12.10
2023-03-13T02:21:26.005Z,12.10
2023-03-13T02:24:04.429Z,12.10
2023-03-13T02:26:38.113Z,12.20
2023-03-13T02:29:09.187Z,12.00
2023-03-13T02:31:40.388Z,12.20
2023-03-13T02:34:11.457Z,12.20
2023-03-13T02:36:43.221Z,12.30
2023-03-13T02:39:17.324Z,12.30
2023-03-13T02:41:51.726Z,12.30
2023-03-13T02:44:23.495Z,12.30
2023-03-13T02:46:55.665Z,12.40
2023-03-13T02:49:32.196Z,12.40
2023-03-13T02:52:14.051Z,12.40
2023-03-13T02:54:50.821Z,12.40
2023-03-13T02:57:24.558Z,12.40
2023-03-13T02:59:55.139Z,12.50
2023-03-13T03:02:26.788Z,12.50
2023-03-13T03:04:58.477Z,12.60
2023-03-13T03:07:30.353Z,12.60
2023-03-13T03:10:01.458Z,12.60
2023-03-13T03:12:35.168Z,12.60
2023-03-13T03:15:06.414Z,12.60
2023-03-13T03:17:39.715Z,12.60
2023-03-13T03:20:12.416Z,12.70
2023-03-13T03:22:46.511Z,12.70
2023-03-13T03:25:17.546Z,12.70
2023-03-13T03:27:51.308Z,12.70
2023-03-13T03:30:22.342Z,12.70
2023-03-13T03:32:55.077Z,12.70
2023-03-13T03:35:27.321Z,12.80
2023-03-13T03:37:58.482Z,12.80
2023-03-13T03:40:30.679Z,12.80
2023-03-13T03:43:05.061Z,12.80
2023-03-13T03:45:36.327Z,12.80
2023-03-13T03:48:08.023Z,12.80
2023-03-13T03:50:39.147Z,12.90
2023-03-13T03:53:10.234Z,12.90
2023-03-13T03:55:41.340Z,12.90
2023-03-13T03:58:16.218Z,13.00
2023-03-13T04:01:05.819Z,12.90
2023-03-13T04:03:37.439Z,12.90
2023-03-13T04:06:09.495Z,13.00
2023-03-13T04:08:40.514Z,13.00
2023-03-13T04:11:13.610Z,12.90
2023-03-13T04:13:51.009Z,13.00
2023-03-13T04:16:22.217Z,13.00
2023-03-13T04:18:53.433Z,13.00
2023-03-13T04:21:25.096Z,13.00
2023-03-13T04:24:06.447Z,13.00
2023-03-13T04:26:39.398Z,13.00
2023-03-13T04:29:14.178Z,13.00
2023-03-13T04:31:56.635Z,13.10
2023-03-13T04:34:43.794Z,13.00
2023-03-13T04:37:43.346Z,13.10
2023-03-13T04:40:35.551Z,13.10
2023-03-13T04:43:29.391Z,13.10
2023-03-13T04:46:18.963Z,13.10
2023-03-13T04:49:10.275Z,13.20
2023-03-13T04:52:00.236Z,13.20
2023-03-13T04:54:54.316Z,13.20
2023-03-13T04:57:57.390Z,13.20
2023-03-13T05:00:45.801Z,13.20
2023-03-13T05:03:35.769Z,13.30
2023-03-13T05:06:29.323Z,13.30
2023-03-13T05:09:17.315Z,13.30
2023-03-13T05:12:03.096Z,13.30
2023-03-13T05:14:59.602Z,13.30
2023-03-13T05:17:56.890Z,13.30
2023-03-13T05:20:49.640Z,13.40
2023-03-13T05:23:36.838Z,13.40
2023-03-13T05:26:30.688Z,13.40
2023-03-13T05:29:22.133Z,13.40
2023-03-13T05:32:11.618Z,13.40
2023-03-13T05:34:57.223Z,13.40
2023-03-13T05:37:31.234Z,13.50
2023-03-13T05:40:05.451Z,13.40
2023-03-13T05:42:46.066Z,13.50
2023-03-13T05:45:20.045Z,13.40
2023-03-13T05:47:51.513Z,13.40
2023-03-13T05:50:37.020Z,13.50
2023-03-13T05:53:29.147Z,13.50
2023-03-13T05:56:09.738Z,13.50
2023-03-13T05:58:49.303Z,13.50
2023-03-13T06:01:39.410Z,13.50
2023-03-13T06:04:19.375Z,13.50
2023-03-13T06:06:50.988Z,13.50
2023-03-13T06:09:25.339Z,13.40
2023-03-13T06:11:58.991Z,13.50
2023-03-13T06:14:30.536Z,13.50
2023-03-13T06:17:25.714Z,13.50
2023-03-13T06:19:56.650Z,13.50
2023-03-13T06:22:27.912Z,13.40
2023-03-13T06:25:01.468Z,13.50
2023-03-13T06:27:31.853Z,13.40
2023-03-13T06:30:02.523Z,13.40
2023-03-13T06:32:34.848Z,13.50
2023-03-13T06:35:05.906Z,13.40
2023-03-13T06:37:37.089Z,13.50
2023-03-13T06:40:11.870Z,13.40
2023-03-13T06:42:42.431Z,13.50
2023-03-13T06:45:14.367Z,13.50
2023-03-13T06:47:45.521Z,13.40
2023-03-13T06:50:16.611Z,13.40
2023-03-13T06:52:47.926Z,13.40
2023-03-13T06:55:21.767Z,13.50
2023-03-13T06:57:54.028Z,13.50
2023-03-13T07:00:25.589Z,13.50
2023-03-13T07:02:57.156Z,13.50
2023-03-13T07:05:28.289Z,13.50
2023-03-13T07:07:59.246Z,13.50
2023-03-13T07:10:33.427Z,13.50
2023-03-13T07:13:04.415Z,13.50
2023-03-13T07:15:35.640Z,13.60
2023-03-13T07:18:06.422Z,13.60
2023-03-13T07:20:37.558Z,13.60
2023-03-13T07:23:08.049Z,13.60
2023-03-13T07:25:41.049Z,13.60
2023-03-13T07:28:11.654Z,13.70
2023-03-13T07:30:42.576Z,13.70
2023-03-13T07:33:13.694Z,13.70
2023-03-13T07:35:44.733Z,13.60
2023-03-13T07:38:15.796Z,13.70
2023-03-13T07:40:54.610Z,13.70
2023-03-13T07:43:25.779Z,13.70
2023-03-13T07:45:58.696Z,13.70
2023-03-13T07:48:32.346Z,13.70
2023-03-13T07:51:03.261Z,13.80
2023-03-13T07:53:34.015Z,13.90
2023-03-13T07:56:09.251Z,13.90
2023-03-13T07:58:41.404Z,13.90
2023-03-13T08:01:12.725Z,13.90
2023-03-13T08:03:43.184Z,13.90
2023-03-13T08:06:16.782Z,13.90
2023-03-13T08:08:47.231Z,13.80
2023-03-13T08:11:23.527Z,13.80
2023-03-13T08:13:54.775Z,13.70
2023-03-13T08:16:26.909Z,13.80
2023-03-13T08:18:59.373Z,13.70
2023-03-13T08:21:31.927Z,13.70
2023-03-13T08:24:06.090Z,13.60
2023-03-13T08:26:40.656Z,13.80
2023-03-13T08:29:13.277Z,13.80
2023-03-13T08:31:47.676Z,13.90
2023-03-13T08:34:19.200Z,13.90
2023-03-13T08:36:49.804Z,14.00
2023-03-13T08:39:21.809Z,14.10
2023-03-13T08:41:54.710Z,14.10
2023-03-13T08:44:25.087Z,14.10
2023-03-13T08:46:55.493Z,14.10
2023-03-13T08:49:25.831Z,14.30
2023-03-13T08:51:56.934Z,14.20
2023-03-13T08:54:27.329Z,14.30
2023-03-13T08:57:00.243Z,14.20
2023-03-13T08:59:30.963Z,14.30
2023-03-13T09:02:01.398Z,14.40
2023-03-13T09:04:31.798Z,14.50
2023-03-13T09:07:02.235Z,14.50
2023-03-13T09:09:32.565Z,14.50
2023-03-13T09:12:06.722Z,14.50
2023-03-13T09:14:37.076Z,14.60
2023-03-13T09:17:07.643Z,14.60
2023-03-13T09:19:40.182Z,14.60
2023-03-13T09:22:13.668Z,14.70
2023-03-13T09:24:45.121Z,14.70
2023-03-13T09:27:17.987Z,14.70
2023-03-13T09:29:48.319Z,14.80
2023-03-13T09:32:20.667Z,14.80
2023-03-13T09:34:51.298Z,14.80
2023-03-13T09:37:21.679Z,14.90
2023-03-13T09:39:52.583Z,15.00
2023-03-13T09:42:31.920Z,15.00
2023-03-13T09:45:06.549Z,14.90
2023-03-13T09:47:45.546Z,14.90
2023-03-13T09:50:20.087Z,15.00
2023-03-13T09:52:54.298Z,15.10
2023-03-13T09:55:29.568Z,15.20
2023-03-13T09:58:07.429Z,15.20
2023-03-13T10:00:40.150Z,15.20
2023-03-13T10:03:17.738Z,15.20
2023-03-13T10:05:52.141Z,15.20
2023-03-13T10:08:25.163Z,15.30
2023-03-13T10:11:01.044Z,15.30
2023-03-13T10:13:39.991Z,15.40
2023-03-13T10:16:13.168Z,15.40
2023-03-13T10:18:47.851Z,15.50
2023-03-13T10:21:21.802Z,15.70
2023-03-13T10:23:56.676Z,15.60
2023-03-13T10:26:31.510Z,15.60
2023-03-13T10:29:15.786Z,15.60
2023-03-13T10:31:55.892Z,15.60
2023-03-13T10:34:27.117Z,15.70
2023-03-13T10:37:02.775Z,15.60
2023-03-13T10:39:33.630Z,15.60
2023-03-13T10:42:13.921Z,15.60
2023-03-13T10:44:47.669Z,15.50
2023-03-13T10:47:18.737Z,15.50
2023-03-13T10:49:53.836Z,15.50
2023-03-13T10:52:38.867Z,15.50
2023-03-13T10:55:12.889Z,15.50
2023-03-13T10:57:46.443Z,15.70
2023-03-13T11:00:35.990Z,15.90
2023-03-13T11:03:10.235Z,15.90
2023-03-13T11:05:43.672Z,16.00
2023-03-13T11:08:36.671Z,16.10
2023-03-13T11:11:08.708Z,16.30
2023-03-13T11:13:43.190Z,16.40
2023-03-13T11:16:24.019Z,16.50
2023-03-13T11:19:20.127Z,16.50
2023-03-13T11:22:02.990Z,16.60
2023-03-13T11:24:43.211Z,16.50
2023-03-13T11:27:22.773Z,16.50
2023-03-13T11:30:04.680Z,16.40
2023-03-13T11:32:45.169Z,16.50
2023-03-13T11:35:27.029Z,16.60
2023-03-13T11:37:59.667Z,16.80
2023-03-13T11:40:34.910Z,16.70
2023-03-13T11:43:25.485Z,16.80
2023-03-13T11:46:14.047Z,16.70
2023-03-13T11:49:09.044Z,16.70
2023-03-13T11:51:49.937Z,16.70
2023-03-13T11:54:44.242Z,16.90
2023-03-13T11:57:17.478Z,17.00
2023-03-13T11:59:56.102Z,17.00
2023-03-13T12:02:31.258Z,16.90
2023-03-13T12:05:07.819Z,17.00
2023-03-13T12:07:43.008Z,17.10
2023-03-13T12:10:17.446Z,17.10
2023-03-13T12:12:52.648Z,17.20
2023-03-13T12:15:27.692Z,17.20
2023-03-13T12:18:03.500Z,17.40
2023-03-13T12:20:45.620Z,17.40
2023-03-13T12:23:23.143Z,17.50
2023-03-13T12:25:58.038Z,17.50
2023-03-13T12:28:38.180Z,17.30
2023-03-13T12:31:21.380Z,17.40
2023-03-13T12:33:58.812Z,17.40
2023-03-13T12:36:36.779Z,17.60
2023-03-13T12:39:21.060Z,17.60
2023-03-13T12:41:59.136Z,17.80
2023-03-13T12:44:31.650Z,17.80
2023-03-13T12:47:11.169Z,17.80
2023-03-13T12:50:01.543Z,17.90
2023-03-13T12:53:09.205Z,17.70
2023-03-13T12:56:05.675Z,17.50
2023-03-13T12:58:49.064Z,17.30
2023-03-13T13:01:29.376Z,17.40
2023-03-13T13:04:02.085Z,17.30
2023-03-13T13:06:49.396Z,17.40
2023-03-13T13:09:27.570Z,17.70
2023-03-13T13:11:59.955Z,17.70
2023-03-13T13:15:14.065Z,17.60
2023-03-13T13:18:02.609Z,17.40
2023-03-13T13:20:45.273Z,17.30
2023-03-13T13:23:42.252Z,17.60
2023-03-13T13:26:51.365Z,17.50
2023-03-13T13:29:58.025Z,17.40
2023-03-13T13:32:43.857Z,17.50
2023-03-13T13:35:30.529Z,17.40
2023-03-13T13:38:36.884Z,17.40
2023-03-13T13:41:23.935Z,17.50
2023-03-13T13:44:27.572Z,17.50
2023-03-13T13:47:02.191Z,17.50
2023-03-13T13:49:39.645Z,17.50
2023-03-13T13:52:42.716Z,17.40
2023-03-13T13:55:46.577Z,17.50
2023-03-13T13:58:22.445Z,17.40
2023-03-13T14:00:58.671Z,17.50
2023-03-13T14:03:31.043Z,17.90
2023-03-13T14:06:06.604Z,17.80
2023-03-13T14:08:42.070Z,17.80
2023-03-13T14:11:25.556Z,17.90
2023-03-13T14:14:19.073Z,17.90
2023-03-13T14:16:53.815Z,17.90
2023-03-13T14:19:30.700Z,18.10
2023-03-13T14:22:03.501Z,18.10
2023-03-13T14:24:34.054Z,18.20
2023-03-13T14:27:05.013Z,18.10
2023-03-13T14:29:35.506Z,18.20
2023-03-13T14:32:08.575Z,18.00
2023-03-13T14:34:38.940Z,18.20
2023-03-13T14:37:37.113Z,18.20
2023-03-13T14:40:12.646Z,18.10
2023-03-13T14:42:52.654Z,18.10
2023-03-13T14:45:28.598Z,18.00
2023-03-13T14:48:06.559Z,17.90
2023-03-13T14:50:38.733Z,17.80
2023-03-13T14:53:16.419Z,17.90
2023-03-13T14:55:46.747Z,17.90
2023-03-13T14:58:31.508Z,17.90
2023-03-13T15:01:14.800Z,17.80
2023-03-13T15:03:49.686Z,17.70
2023-03-13T15:06:22.435Z,17.60
2023-03-13T15:09:11.310Z,17.60
2023-03-13T15:11:44.859Z,17.60
2023-03-13T15:14:38.679Z,17.60
2023-03-13T15:17:16.903Z,17.80
2023-03-13T15:19:52.341Z,17.90
2023-03-13T15:22:29.030Z,17.90
2023-03-13T15:25:08.011Z,17.90
2023-03-13T15:27:38.854Z,17.90
2023-03-13T15:30:10.668Z,18.00
2023-03-13T15:32:44.103Z,18.10
2023-03-13T15:35:27.501Z,18.00
2023-03-13T15:37:58.493Z,17.90
2023-03-13T15:40:31.128Z,18.00
2023-03-13T15:43:02.245Z,17.90
2023-03-13T15:45:32.829Z,17.80
2023-03-13T15:48:03.885Z,17.80
2023-03-13T15:50:36.889Z,17.90
2023-03-13T15:53:09.984Z,18.00
2023-03-13T15:55:40.604Z,18.00
2023-03-13T15:58:13.463Z,17.90
2023-03-13T16:00:44.588Z,18.00
2023-03-13T16:03:19.442Z,18.00
2023-03-13T16:05:53.085Z,17.90
2023-03-13T16:08:37.466Z,17.90
2023-03-13T16:11:08.448Z,17.90
2023-03-13T16:13:38.862Z,17.80
2023-03-13T16:16:21.115Z,17.70
2023-03-13T16:18:52.507Z,17.50
2023-03-13T16:21:27.024Z,17.50
2023-03-13T16:23:57.751Z,17.40
2023-03-13T16:26:30.569Z,17.50
2023-03-13T16:29:01.256Z,17.40
2023-03-13T16:31:33.328Z,17.30
2023-03-13T16:34:03.775Z,17.30
2023-03-13T16:36:37.463Z,17.30
2023-03-13T16:39:11.405Z,17.30
2023-03-13T16:41:41.831Z,17.20
2023-03-13T16:44:12.231Z,17.20
2023-03-13T16:46:59.249Z,17.10
2023-03-13T16:49:34.871Z,17.10
2023-03-13T16:52:07.897Z,17.00
2023-03-13T16:54:38.225Z,17.00
2023-03-13T16:57:13.977Z,17.00
2023-03-13T16:59:44.467Z,16.90
2023-03-13T17:02:18.273Z,17.00
2023-03-13T17:04:49.632Z,17.00
2023-03-13T17:07:26.810Z,17.00
2023-03-13T17:09:57.386Z,16.90
2023-03-13T17:12:27.740Z,17.10
2023-03-13T17:14:58.008Z,17.70
2023-03-13T17:17:29.247Z,17.70
2023-03-13T17:20:00.352Z,17.50
2023-03-13T17:22:33.484Z,17.30
2023-03-13T17:25:04.035Z,17.10
2023-03-13T17:27:35.913Z,17.00
2023-03-13T17:30:08.003Z,16.90
2023-03-13T17:32:38.560Z,16.90
2023-03-13T17:35:10.607Z,16.80
2023-03-13T17:37:44.713Z,16.70
2023-03-13T17:40:23.752Z,16.70
2023-03-13T17:42:54.103Z,16.60
2023-03-13T17:45:24.663Z,16.60
2023-03-13T17:47:54.933Z,16.50
2023-03-13T17:50:27.716Z,16.50
2023-03-13T17:53:00.702Z,16.50
2023-03-13T17:55:31.265Z,16.50
2023-03-13T17:58:01.564Z,16.30
2023-03-13T18:00:33.959Z,16.30
2023-03-13T18:03:04.453Z,16.30
2023-03-13T18:05:34.824Z,16.30
2023-03-13T18:08:08.081Z,16.30
2023-03-13T18:10:38.415Z,16.30
2023-03-13T18:13:08.738Z,16.20
2023-03-13T18:15:39.060Z,16.10
2023-03-13T18:18:09.504Z,16.10
2023-03-13T18:20:39.825Z,16.10
2023-03-13T18:23:12.849Z,16.00
2023-03-13T18:25:43.200Z,16.00
2023-03-13T18:28:14.813Z,16.10
2023-03-13T18:30:45.074Z,16.10
2023-03-13T18:33:15.417Z,16.00
2023-03-13T18:35:45.722Z,16.00
2023-03-13T18:38:19.649Z,16.00
2023-03-13T18:40:49.955Z,16.00
2023-03-13T18:43:20.329Z,16.00
2023-03-13T18:45:50.640Z,15.90
2023-03-13T18:48:20.985Z,15.90
2023-03-13T18:50:51.344Z,15.80
2023-03-13T18:53:26.219Z,15.80
2023-03-13T18:55:59.224Z,15.80
2023-03-13T18:58:29.594Z,15.80
2023-03-13T19:01:00.075Z,15.80
2023-03-13T19:03:30.397Z,15.70
2023-03-13T19:06:01.495Z,15.70
2023-03-13T19:08:34.492Z,15.60
2023-03-13T19:11:04.797Z,15.60
2023-03-13T19:13:38.436Z,15.50
2023-03-13T19:16:16.531Z,15.50
2023-03-13T19:18:47.531Z,15.50
2023-03-13T19:21:20.282Z,15.50
2023-03-13T19:23:53.908Z,15.50
2023-03-13T19:26:30.600Z,15.50
2023-03-13T19:29:01.027Z,15.40
2023-03-13T19:31:31.592Z,15.30
2023-03-13T19:34:01.825Z,15.30
2023-03-13T19:36:36.344Z,15.30
2023-03-13T19:39:16.634Z,15.20
2023-03-13T19:41:48.061Z,15.20
2023-03-13T19:44:18.928Z,15.20
2023-03-13T19:46:49.716Z,15.20
2023-03-13T19:49:22.312Z,15.20
2023-03-13T19:51:52.705Z,15.10
2023-03-13T19:54:25.933Z,15.10
2023-03-13T19:56:56.434Z,15.10
2023-03-13T19:59:28.722Z,15.10
2023-03-13T20:02:01.299Z,15.00
2023-03-13T20:04:31.653Z,15.00
2023-03-13T20:07:02.490Z,15.00
2023-03-13T20:09:37.728Z,15.00
2023-03-13T20:12:08.566Z,14.90
2023-03-13T20:14:38.872Z,14.90
2023-03-13T20:17:09.149Z,14.90
2023-03-13T20:19:39.903Z,14.90
2023-03-13T20:22:10.474Z,14.90
2023-03-13T20:24:43.605Z,14.80
2023-03-13T20:27:13.903Z,14.70
2023-03-13T20:29:44.360Z,14.70
2023-03-13T20:32:14.804Z,14.70
2023-03-13T20:34:45.245Z,14.60
2023-03-13T20:37:15.556Z,14.60
2023-03-13T20:39:48.427Z,14.60
2023-03-13T20:42:20.308Z,14.60
2023-03-13T20:44:50.605Z,14.60
2023-03-13T20:47:20.874Z,14.50
2023-03-13T20:49:51.188Z,14.50
2023-03-13T20:52:21.466Z,14.50
2023-03-13T20:54:54.373Z,14.50
2023-03-13T20:57:25.825Z,14.50
2023-03-13T20:59:56.215Z,14.40
2023-03-13T21:02:26.516Z,14.40
2023-03-13T21:04:56.876Z,14.40
2023-03-13T21:07:27.303Z,14.40
2023-03-13T21:10:00.376Z,14.40
2023-03-13T21:12:30.683Z,14.40
2023-03-13T21:15:00.917Z,14.40
2023-03-13T21:17:31.247Z,14.40
2023-03-13T21:20:01.633Z,14.40
2023-03-13T21:22:32.058Z,14.30
2023-03-13T21:25:05.158Z,14.40
2023-03-13T21:27:35.689Z,14.30
2023-03-13T21:30:07.567Z,14.30
2023-03-13T21:32:40.121Z,14.30
2023-03-13T21:35:11.995Z,14.20
2023-03-13T21:37:42.989Z,14.30
2023-03-13T21:40:16.365Z,14.20
2023-03-13T21:42:46.673Z,14.30
2023-03-13T21:45:17.035Z,14.20
2023-03-13T21:47:47.435Z,14.20
2023-03-13T21:50:17.764Z,14.20
2023-03-13T21:52:48.038Z,14.20
2023-03-13T21:55:21.233Z,14.20
2023-03-13T21:57:51.572Z,14.10
2023-03-13T22:00:22.445Z,14.10
2023-03-13T22:02:52.708Z,14.10
2023-03-13T22:05:23.036Z,14.10
2023-03-13T22:07:53.410Z,14.10
2023-03-13T22:10:26.253Z,14.10
2023-03-13T22:12:56.569Z,14.10
2023-03-13T22:15:26.824Z,14.10
2023-03-13T22:17:57.130Z,14.10
2023-03-13T22:20:27.743Z,14.10
2023-03-13T22:22:58.138Z,14.10
2023-03-13T22:25:31.208Z,14.10
2023-03-13T22:28:01.476Z,14.00
2023-03-13T22:30:31.879Z,13.90
2023-03-13T22:33:04.013Z,13.90
2023-03-13T22:35:34.437Z,13.90
2023-03-13T22:38:04.810Z,13.90
2023-03-13T22:40:38.067Z,13.80
2023-03-13T22:43:08.388Z,13.90
2023-03-13T22:45:38.661Z,13.80
2023-03-13T22:48:09.243Z,13.80
2023-03-13T22:50:39.585Z,13.80
2023-03-13T22:53:09.926Z,13.70
2023-03-13T22:55:42.854Z,13.70
2023-03-13T22:58:13.184Z,13.70
2023-03-13T23:00:43.472Z,13.60
2023-03-13T23:03:13.773Z,13.60
2023-03-13T23:05:47.618Z,13.60
2023-03-13T23:08:19.203Z,13.60
2023-03-13T23:10:52.172Z,13.50
2023-03-13T23:13:22.503Z,13.50
2023-03-13T23:15:56.352Z,13.50
2023-03-13T23:18:27.298Z,13.50
2023-03-13T23:20:58.062Z,13.50
2023-03-13T23:23:28.376Z,13.50
2023-03-13T23:26:02.009Z,13.40
2023-03-13T23:28:32.337Z,13.40
2023-03-13T23:31:02.621Z,13.40
2023-03-13T23:33:32.944Z,13.40
2023-03-13T23:36:08.874Z,13.30
2023-03-13T23:38:39.541Z,13.30
2023-03-13T23:41:14.524Z,13.20
2023-03-13T23:43:44.922Z,13.20
2023-03-13T23:46:22.630Z,13.20
2023-03-13T23:48:55.625Z,13.20
2023-03-13T23:51:26.461Z,13.20
2023-03-13T23:53:56.698Z,13.20
2023-03-13T23:56:30.631Z,13.20
2023-03-13T23:59:00.943Z,13.20
